createdAt,value
2018-11-27T00:01:07.266Z,26.82
2018-11-27T00:03:40.410Z,21.70
2018-11-27T00:06:07.705Z,30.40
2018-11-27T00:08:35.280Z,25.23
2018-11-27T00:11:02.590Z,28.57
2018-11-27T00:13:29.925Z,28.23
2018-11-27T00:15:57.753Z,24.57
2018-11-27T00:18:25.061Z,24.95
2018-11-27T00:20:52.700Z,27.77
2018-11-27T00:23:20.211Z,25.12
2018-11-27T00:25:47.885Z,23.12
2018-11-27T00:28:15.434Z,27.85
2018-11-27T00:30:42.804Z,30.32
2018-11-27T00:33:10.150Z,26.62
2018-11-27T00:35:37.453Z,30.90
2018-11-27T00:38:04.781Z,26.35
2018-11-27T00:40:32.436Z,27.80
2018-11-27T00:42:59.800Z,29.10
2018-11-27T00:45:27.328Z,29.07
2018-11-27T00:47:54.669Z,26.10
2018-11-27T00:50:22.684Z,29.07
2018-11-27T00:52:50.237Z,28.70
2018-11-27T00:55:18.200Z,32.98
2018-11-27T00:57:46.202Z,30.80
2018-11-27T01:00:14.293Z,28.98
2018-11-27T01:02:41.825Z,26.90
2018-11-27T01:05:10.013Z,33.53
2018-11-27T01:07:37.347Z,27.20
2018-11-27T01:10:05.810Z,27.55
2018-11-27T01:12:33.506Z,27.87
2018-11-27T01:15:00.812Z,25.45
2018-11-27T01:17:28.154Z,26.00
2018-11-27T01:19:55.460Z,25.95
2018-11-27T01:22:23.104Z,28.95
2018-11-27T01:24:50.656Z,29.07
2018-11-27T01:27:18.211Z,31.95
2018-11-27T01:29:45.794Z,30.72
2018-11-27T01:32:13.337Z,30.12
2018-11-27T01:34:40.672Z,30.00
2018-11-27T01:37:07.994Z,27.27
2018-11-27T01:39:35.309Z,30.08
2018-11-27T01:42:02.874Z,24.27
2018-11-27T01:44:30.206Z,26.52
2018-11-27T01:46:58.001Z,25.48
2018-11-27T01:49:25.561Z,29.80
2018-11-27T01:51:53.135Z,29.70
2018-11-27T01:54:20.444Z,30.50
2018-11-27T01:56:47.777Z,30.10
2018-11-27T01:59:15.342Z,28.02
2018-11-27T02:01:42.928Z,28.77
2018-11-27T02:04:10.293Z,26.33
2018-11-27T02:06:37.604Z,27.17
2018-11-27T02:09:06.941Z,29.77
2018-11-27T02:11:35.029Z,28.95
2018-11-27T02:14:02.597Z,31.05
2018-11-27T02:16:29.931Z,29.65
2018-11-27T02:18:57.713Z,31.60
2018-11-27T02:21:25.252Z,23.55
2018-11-27T02:23:52.898Z,27.40
2018-11-27T02:26:20.233Z,27.60
2018-11-27T02:28:47.585Z,30.75
2018-11-27T02:31:14.890Z,29.75
2018-11-27T02:33:42.767Z,27.82
2018-11-27T02:36:10.099Z,30.55
2018-11-27T02:38:37.413Z,26.70
2018-11-27T02:41:05.097Z,30.82
2018-11-27T02:43:32.634Z,29.18
2018-11-27T02:46:00.191Z,29.57
2018-11-27T02:48:27.527Z,36.38
2018-11-27T02:50:55.081Z,30.32
2018-11-27T02:53:22.675Z,31.50
2018-11-27T02:55:50.005Z,29.82
2018-11-27T02:58:17.306Z,34.18
2018-11-27T03:00:46.638Z,33.92
2018-11-27T03:03:14.067Z,34.63
2018-11-27T03:05:41.414Z,35.35
2018-11-27T03:08:09.085Z,28.57
2018-11-27T03:10:36.415Z,32.28
2018-11-27T03:13:03.992Z,30.45
2018-11-27T03:15:31.330Z,31.55
2018-11-27T03:17:58.769Z,30.95
2018-11-27T03:20:26.091Z,34.70
2018-11-27T03:22:53.395Z,34.53
2018-11-27T03:25:21.744Z,29.12
2018-11-27T03:27:49.968Z,26.95
2018-11-27T03:30:18.095Z,33.73
2018-11-27T03:32:45.429Z,39.15
2018-11-27T03:35:13.224Z,34.50
2018-11-27T03:37:40.794Z,30.50
2018-11-27T03:40:10.159Z,36.25
2018-11-27T03:42:37.480Z,32.28
2018-11-27T03:45:05.373Z,32.30
2018-11-27T03:47:32.744Z,35.75
2018-11-27T03:50:00.318Z,34.45
2018-11-27T03:52:27.641Z,34.13
2018-11-27T03:54:55.205Z,30.72
2018-11-27T03:57:23.014Z,31.05
2018-11-27T03:59:50.342Z,31.52
2018-11-27T04:02:17.697Z,31.55
2018-11-27T04:04:45.006Z,34.78
2018-11-27T04:07:12.294Z,34.95
2018-11-27T04:09:39.848Z,36.98
2018-11-27T04:12:07.277Z,34.15
2018-11-27T04:14:34.909Z,34.70
2018-11-27T04:17:02.420Z,32.20
2018-11-27T04:19:29.740Z,31.33
2018-11-27T04:21:57.065Z,33.48
2018-11-27T04:24:25.263Z,39.08
2018-11-27T04:26:52.575Z,38.30
2018-11-27T04:29:20.573Z,37.17
2018-11-27T04:31:47.910Z,34.73
2018-11-27T04:34:15.296Z,34.98
2018-11-27T04:36:43.073Z,37.58
2018-11-27T04:39:10.411Z,36.68
2018-11-27T04:41:37.970Z,37.60
2018-11-27T04:44:05.532Z,36.65
2018-11-27T04:46:33.193Z,38.05
2018-11-27T04:49:00.712Z,37.53
2018-11-27T04:51:28.259Z,39.27
2018-11-27T04:53:55.562Z,34.95
2018-11-27T04:56:22.939Z,41.37
2018-11-27T04:58:50.229Z,36.25
2018-11-27T05:01:17.525Z,44.70
2018-11-27T05:03:44.853Z,38.15
2018-11-27T05:06:12.407Z,42.03
2018-11-27T05:08:40.107Z,42.13
2018-11-27T05:11:07.677Z,35.88
2018-11-27T05:13:35.469Z,39.08
2018-11-27T05:16:02.801Z,33.75
2018-11-27T05:18:30.533Z,41.33
2018-11-27T05:20:57.830Z,42.38
2018-11-27T05:23:25.168Z,41.68
2018-11-27T05:25:52.928Z,37.70
2018-11-27T05:28:20.213Z,40.23
2018-11-27T05:30:48.077Z,42.33
2018-11-27T05:33:15.385Z,44.27
2018-11-27T05:35:42.720Z,38.35
2018-11-27T05:38:10.286Z,37.25
2018-11-27T05:40:38.106Z,38.98
2018-11-27T05:43:07.309Z,42.62
2018-11-27T05:45:34.637Z,43.75
2018-11-27T05:48:02.012Z,49.03
2018-11-27T05:50:29.581Z,42.70
2018-11-27T05:52:57.374Z,40.75
2018-11-27T05:55:24.715Z,44.67
2018-11-27T05:57:52.949Z,48.20
2018-11-27T06:00:21.949Z,40.95
2018-11-27T06:02:50.309Z,43.13
2018-11-27T06:05:18.183Z,39.45
2018-11-27T06:07:45.866Z,43.98
2018-11-27T06:10:14.616Z,36.05
2018-11-27T06:12:41.935Z,39.98
2018-11-27T06:15:10.155Z,44.83
2018-11-27T06:17:37.469Z,45.43
2018-11-27T06:20:07.031Z,40.35
2018-11-27T06:22:34.774Z,40.55
2018-11-27T06:25:02.413Z,37.65
2018-11-27T06:27:29.746Z,45.17
2018-11-27T06:29:57.096Z,38.55
2018-11-27T06:32:25.198Z,47.27
2018-11-27T06:34:52.784Z,43.63
2018-11-27T06:37:20.480Z,45.50
2018-11-27T06:39:48.003Z,44.88
2018-11-27T06:42:15.318Z,45.80
2018-11-27T06:44:43.090Z,41.35
2018-11-27T06:47:10.660Z,66.55
2018-11-27T06:49:37.973Z,51.10
2018-11-27T06:52:05.571Z,48.50
2018-11-27T06:54:32.868Z,69.00
2018-11-27T06:57:00.193Z,43.45
2018-11-27T06:59:27.760Z,41.30
2018-11-27T07:01:55.077Z,45.65
2018-11-27T07:04:22.625Z,41.88
2018-11-27T07:06:49.995Z,49.75
2018-11-27T07:09:17.562Z,48.25
2018-11-27T07:11:45.409Z,42.00
2018-11-27T07:14:12.770Z,40.85
2018-11-27T07:16:40.377Z,48.58
2018-11-27T07:19:07.964Z,48.15
2018-11-27T07:21:35.512Z,46.90
2018-11-27T07:24:03.578Z,41.42
2018-11-27T07:26:31.196Z,43.65
2018-11-27T07:28:58.522Z,44.00
2018-11-27T07:31:26.097Z,40.35
2018-11-27T07:33:53.526Z,43.30
2018-11-27T07:36:21.155Z,46.60
2018-11-27T07:38:48.941Z,41.68
2018-11-27T07:41:16.492Z,43.35
2018-11-27T07:43:43.827Z,44.98
2018-11-27T07:46:11.383Z,39.00
2018-11-27T07:48:38.725Z,40.63
2018-11-27T07:51:06.052Z,36.23
2018-11-27T07:53:33.950Z,44.50
2018-11-27T07:56:01.535Z,40.48
2018-11-27T07:58:28.861Z,42.90
2018-11-27T08:00:56.184Z,40.03
2018-11-27T08:03:23.834Z,39.55
2018-11-27T08:05:51.237Z,38.65
2018-11-27T08:08:19.346Z,47.58
2018-11-27T08:10:48.323Z,44.33
2018-11-27T08:13:15.682Z,37.08
2018-11-27T08:15:43.049Z,38.45
2018-11-27T08:18:10.749Z,46.25
2018-11-27T08:20:38.061Z,44.30
2018-11-27T08:23:05.945Z,39.70
2018-11-27T08:25:33.297Z,41.63
2018-11-27T08:28:00.893Z,38.35
2018-11-27T08:30:28.522Z,37.45
2018-11-27T08:32:56.496Z,39.95
2018-11-27T08:35:24.766Z,42.90
2018-11-27T08:37:52.629Z,34.60
2018-11-27T08:40:20.904Z,39.58
2018-11-27T08:42:48.466Z,36.68
2018-11-27T08:45:16.523Z,43.45
2018-11-27T08:47:44.106Z,40.92
2018-11-27T08:50:14.931Z,36.75
2018-11-27T08:52:46.728Z,41.35
2018-11-27T08:55:13.271Z,45.03
2018-11-27T08:57:41.687Z,39.88
2018-11-27T09:00:11.555Z,39.60
2018-11-27T09:02:38.915Z,44.13
2018-11-27T09:05:06.634Z,39.33
2018-11-27T09:07:34.503Z,37.58
2018-11-27T09:10:01.959Z,38.88
2018-11-27T09:12:29.285Z,41.25
2018-11-27T09:14:56.889Z,45.60
2018-11-27T09:17:24.436Z,39.67
2018-11-27T09:19:51.901Z,41.88
2018-11-27T09:22:19.251Z,41.05
2018-11-27T09:24:46.808Z,43.20
2018-11-27T09:27:14.161Z,44.35
2018-11-27T09:29:41.935Z,40.78
2018-11-27T09:32:09.685Z,42.60
2018-11-27T09:34:37.038Z,41.55
2018-11-27T09:37:04.588Z,44.45
2018-11-27T09:39:32.145Z,49.63
2018-11-27T09:41:59.716Z,42.83
2018-11-27T09:44:27.512Z,39.78
2018-11-27T09:46:54.972Z,44.55
2018-11-27T09:49:22.278Z,40.92
2018-11-27T09:51:49.837Z,39.40
2018-11-27T09:54:17.644Z,39.42
2018-11-27T09:56:45.032Z,40.65
2018-11-27T09:59:12.340Z,38.63
2018-11-27T10:01:39.909Z,37.38
2018-11-27T10:04:07.262Z,40.98
2018-11-27T10:06:35.137Z,44.50
2018-11-27T10:09:02.517Z,44.45
2018-11-27T10:11:29.850Z,39.75
2018-11-27T10:13:57.165Z,43.33
2018-11-27T10:16:24.521Z,45.43
2018-11-27T10:18:52.106Z,41.13
2018-11-27T10:21:19.863Z,43.05
2018-11-27T10:23:47.420Z,41.20
2018-11-27T10:26:14.823Z,42.05
2018-11-27T10:28:42.139Z,48.17
2018-11-27T10:31:09.614Z,44.35
2018-11-27T10:33:37.106Z,41.88
2018-11-27T10:36:04.589Z,35.60
2018-11-27T10:38:31.990Z,42.05
2018-11-27T10:40:59.390Z,38.17
2018-11-27T10:43:27.136Z,40.20
2018-11-27T10:45:54.453Z,44.30
2018-11-27T10:48:21.789Z,41.98
2018-11-27T10:50:49.346Z,37.08
2018-11-27T10:53:17.479Z,43.35
2018-11-27T10:55:44.841Z,40.15
2018-11-27T10:58:12.678Z,45.30
2018-11-27T11:00:45.466Z,41.88
2018-11-27T11:03:43.393Z,44.63
2018-11-27T11:06:10.833Z,41.08
2018-11-27T11:08:38.173Z,45.78
2018-11-27T11:11:06.159Z,47.75
2018-11-27T11:13:33.654Z,41.68
2018-11-27T11:16:01.503Z,42.90
2018-11-27T11:18:29.424Z,37.88
2018-11-27T11:20:57.510Z,45.08
2018-11-27T11:23:25.290Z,38.88
2018-11-27T11:25:52.629Z,44.00
2018-11-27T11:28:20.805Z,41.53
2018-11-27T11:30:48.388Z,44.83
2018-11-27T11:33:15.772Z,46.60
2018-11-27T11:35:43.164Z,40.95
2018-11-27T11:38:10.744Z,35.58
2018-11-27T11:40:38.533Z,47.38
2018-11-27T11:43:06.607Z,44.30
2018-11-27T11:45:34.100Z,36.45
2018-11-27T11:48:01.452Z,42.90
2018-11-27T11:50:30.060Z,43.58
2018-11-27T11:53:01.700Z,45.95
2018-11-27T11:55:29.511Z,43.45
2018-11-27T11:57:57.018Z,43.02
2018-11-27T12:00:26.382Z,43.75
2018-11-27T12:02:54.413Z,41.02
2018-11-27T12:05:25.069Z,44.53
2018-11-27T12:07:50.069Z,41.58
2018-11-27T12:10:17.486Z,41.02
2018-11-27T12:12:45.461Z,39.45
2018-11-27T12:15:13.343Z,40.45
2018-11-27T12:17:40.840Z,39.15
2018-11-27T12:20:09.424Z,38.17
2018-11-27T12:22:36.720Z,42.33
2018-11-27T12:25:04.618Z,39.85
2018-11-27T12:27:32.035Z,36.35
2018-11-27T12:29:59.402Z,38.02
2018-11-27T12:32:26.718Z,39.05
2018-11-27T12:34:54.034Z,40.88
2018-11-27T12:37:21.916Z,38.15
2018-11-27T12:39:49.218Z,37.55
2018-11-27T12:42:16.566Z,36.53
2018-11-27T12:44:44.337Z,35.00
2018-11-27T12:47:11.990Z,38.98
2018-11-27T12:49:39.534Z,42.33
2018-11-27T12:52:07.113Z,33.50
2018-11-27T12:54:34.527Z,40.45
2018-11-27T12:57:01.926Z,42.85
2018-11-27T12:59:29.601Z,36.88
2018-11-27T13:01:56.984Z,33.67
2018-11-27T13:04:25.101Z,37.25
2018-11-27T13:06:52.701Z,38.80
2018-11-27T13:09:20.553Z,37.13
2018-11-27T13:11:47.912Z,35.98
2018-11-27T13:14:15.478Z,35.33
2018-11-27T13:16:43.052Z,34.23
2018-11-27T13:19:10.368Z,34.15
2018-11-27T13:21:37.698Z,34.92
2018-11-27T13:24:05.670Z,35.63
2018-11-27T13:26:33.189Z,42.45
2018-11-27T13:29:00.781Z,36.25
2018-11-27T13:31:29.102Z,33.80
2018-11-27T13:33:57.702Z,35.43
2018-11-27T13:36:25.083Z,40.50
2018-11-27T13:38:52.364Z,35.52
2018-11-27T13:41:19.938Z,38.48
2018-11-27T13:43:47.344Z,33.13
2018-11-27T13:46:14.687Z,31.45
2018-11-27T13:48:42.028Z,34.60
2018-11-27T13:51:09.819Z,35.55
2018-11-27T13:53:37.142Z,36.00
2018-11-27T13:56:04.934Z,30.88
2018-11-27T13:58:32.298Z,24.90
2018-11-27T14:01:00.120Z,31.30
2018-11-27T14:03:27.845Z,28.07
2018-11-27T14:05:55.653Z,27.10
2018-11-27T14:08:23.268Z,29.10
2018-11-27T14:10:50.909Z,36.17
2018-11-27T14:13:18.281Z,24.45
2018-11-27T14:15:45.906Z,22.50
2018-11-27T14:18:13.280Z,21.68
2018-11-27T14:20:40.635Z,21.25
2018-11-27T14:23:08.207Z,21.93
2018-11-27T14:25:36.074Z,18.85
2018-11-27T14:28:03.453Z,18.40
2018-11-27T14:30:30.873Z,19.82
2018-11-27T14:32:58.663Z,24.27
2018-11-27T14:35:26.050Z,15.90
2018-11-27T14:37:53.973Z,17.37
2018-11-27T14:40:22.434Z,18.75
2018-11-27T14:42:50.632Z,18.23
2018-11-27T14:45:18.602Z,14.03
2018-11-27T14:47:46.587Z,21.02
2018-11-27T14:50:14.235Z,17.70
2018-11-27T14:52:41.796Z,20.08
2018-11-27T14:55:10.785Z,18.55
2018-11-27T14:57:38.117Z,17.62
2018-11-27T15:00:07.810Z,16.97
2018-11-27T15:02:35.423Z,17.10
2018-11-27T15:05:02.727Z,17.20
2018-11-27T15:07:30.643Z,18.00
2018-11-27T15:09:58.201Z,20.82
2018-11-27T15:12:25.586Z,16.90
2018-11-27T15:14:53.368Z,21.87
2018-11-27T15:17:20.927Z,16.87
2018-11-27T15:19:48.270Z,23.67
2018-11-27T15:22:15.841Z,21.27
2018-11-27T15:24:43.137Z,20.30
2018-11-27T15:27:10.722Z,21.42
2018-11-27T15:29:38.268Z,22.73
2018-11-27T15:32:05.870Z,21.65
2018-11-27T15:34:33.750Z,24.02
2018-11-27T15:37:01.409Z,23.12
2018-11-27T15:39:28.968Z,23.60
2018-11-27T15:41:56.256Z,23.12
2018-11-27T15:44:23.653Z,26.68
2018-11-27T15:46:51.076Z,21.10
2018-11-27T15:49:18.505Z,24.67
2018-11-27T15:51:46.044Z,27.30
2018-11-27T15:54:14.737Z,23.62
2018-11-27T15:56:45.263Z,22.77
2018-11-27T15:59:13.752Z,23.45
2018-11-27T16:01:41.669Z,27.52
2018-11-27T16:04:10.614Z,25.17
2018-11-27T16:06:38.389Z,24.30
2018-11-27T16:09:09.520Z,28.90
2018-11-27T16:11:40.066Z,29.52
2018-11-27T16:14:09.577Z,29.92
2018-11-27T16:16:37.627Z,28.92
2018-11-27T16:19:08.543Z,31.25
2018-11-27T16:21:38.176Z,34.25
2018-11-27T16:24:06.039Z,25.88
2018-11-27T16:26:33.728Z,33.83
2018-11-27T16:29:02.096Z,27.82
2018-11-27T16:31:29.469Z,28.75
2018-11-27T16:33:57.968Z,28.70
2018-11-27T16:36:27.155Z,34.33
2018-11-27T16:38:54.798Z,32.75
2018-11-27T16:41:22.785Z,40.60
2018-11-27T16:43:51.704Z,34.00
2018-11-27T16:46:19.471Z,30.90
2018-11-27T16:48:47.233Z,35.25
2018-11-27T16:51:16.194Z,34.30
2018-11-27T16:53:49.714Z,28.75
2018-11-27T16:56:17.210Z,27.52
2018-11-27T16:58:45.070Z,24.85
2018-11-27T17:01:13.218Z,30.52
2018-11-27T17:03:40.643Z,28.17
2018-11-27T17:06:09.300Z,26.45
2018-11-27T17:08:37.420Z,26.77
2018-11-27T17:11:05.602Z,23.12
2018-11-27T17:13:33.972Z,31.85
2018-11-27T17:16:02.392Z,26.90
2018-11-27T17:18:30.590Z,27.48
2018-11-27T17:21:02.351Z,28.50
2018-11-27T17:23:30.147Z,25.88
2018-11-27T17:26:03.872Z,27.98
2018-11-27T17:28:27.434Z,24.35
2018-11-27T17:30:58.985Z,30.60
2018-11-27T17:33:31.778Z,30.10
2018-11-27T17:36:01.575Z,28.80
2018-11-27T17:38:30.547Z,27.50
2018-11-27T17:41:01.295Z,26.80
2018-11-27T17:43:29.083Z,28.30
2018-11-27T17:45:56.628Z,23.52
2018-11-27T17:48:24.412Z,28.83
2018-11-27T17:50:52.473Z,28.57
2018-11-27T17:53:20.146Z,28.75
2018-11-27T17:55:47.975Z,27.52
2018-11-27T17:58:15.461Z,25.65
2018-11-27T18:00:42.965Z,26.75
2018-11-27T18:03:10.802Z,27.60
2018-11-27T18:05:38.590Z,29.10
2018-11-27T18:08:06.357Z,25.08
2018-11-27T18:10:33.622Z,27.58
2018-11-27T18:13:00.914Z,29.15
2018-11-27T18:15:28.433Z,29.05
2018-11-27T18:17:55.722Z,28.00
2018-11-27T18:20:23.213Z,26.68
2018-11-27T18:22:50.486Z,32.33
2018-11-27T18:25:18.617Z,35.43
2018-11-27T18:27:46.404Z,31.33
2018-11-27T18:30:14.267Z,26.52
2018-11-27T18:32:41.618Z,33.15
2018-11-27T18:35:10.514Z,32.90
2018-11-27T18:37:38.010Z,30.55
2018-11-27T18:40:06.176Z,31.07
2018-11-27T18:42:33.696Z,30.12
2018-11-27T18:45:00.997Z,28.47
2018-11-27T18:47:31.316Z,30.70
2018-11-27T18:49:58.589Z,31.95
2018-11-27T18:52:25.883Z,27.45
2018-11-27T18:54:53.169Z,33.75
2018-11-27T18:57:20.426Z,31.37
2018-11-27T18:59:47.806Z,31.27
2018-11-27T19:02:15.354Z,35.05
2018-11-27T19:04:42.683Z,30.32
2018-11-27T19:07:09.966Z,33.08
2018-11-27T19:09:44.911Z,31.97
2018-11-27T19:12:13.193Z,37.05
2018-11-27T19:14:40.611Z,29.48
2018-11-27T19:17:09.167Z,34.15
2018-11-27T19:19:37.278Z,31.35
2018-11-27T19:22:07.438Z,29.85
2018-11-27T19:24:35.279Z,30.92
2018-11-27T19:27:02.962Z,36.42
2018-11-27T19:29:30.251Z,30.37
2018-11-27T19:31:57.543Z,31.55
2018-11-27T19:34:25.265Z,31.97
2018-11-27T19:36:55.320Z,36.15
2018-11-27T19:39:22.744Z,27.75
2018-11-27T19:41:50.257Z,31.52
2018-11-27T19:44:17.518Z,33.10
2018-11-27T19:46:44.843Z,35.20
2018-11-27T19:49:12.599Z,32.35
2018-11-27T19:51:40.831Z,32.50
2018-11-27T19:54:08.316Z,34.48
2018-11-27T19:56:35.669Z,35.63
2018-11-27T19:59:02.995Z,35.55
2018-11-27T20:01:30.280Z,31.25
2018-11-27T20:03:57.546Z,32.88
2018-11-27T20:06:24.831Z,39.38
2018-11-27T20:08:52.086Z,43.78
2018-11-27T20:11:19.404Z,34.75
2018-11-27T20:13:46.699Z,32.15
2018-11-27T20:16:14.015Z,39.18
2018-11-27T20:18:42.531Z,35.05
2018-11-27T20:21:11.328Z,38.17
2018-11-27T20:23:38.843Z,31.97
2018-11-27T20:26:06.267Z,36.95
2018-11-27T20:28:33.903Z,35.92
2018-11-27T20:31:01.307Z,38.75
2018-11-27T20:33:28.815Z,30.32
2018-11-27T20:35:56.177Z,35.25
2018-11-27T20:38:23.450Z,37.20
2018-11-27T20:40:50.862Z,33.45
2018-11-27T20:43:18.200Z,30.72
2018-11-27T20:45:45.516Z,44.65
2018-11-27T20:48:13.905Z,35.75
2018-11-27T20:50:41.581Z,35.98
2018-11-27T20:53:09.143Z,40.12
2018-11-27T20:55:36.510Z,36.30
2018-11-27T20:58:03.880Z,41.20
2018-11-27T21:00:34.051Z,37.65
2018-11-27T21:03:01.840Z,38.80
2018-11-27T21:05:29.141Z,39.85
2018-11-27T21:07:56.461Z,37.98
2018-11-27T21:10:23.750Z,29.95
2018-11-27T21:12:51.028Z,36.33
2018-11-27T21:15:18.933Z,41.73
2018-11-27T21:17:46.322Z,34.70
2018-11-27T21:20:13.942Z,35.63
2018-11-27T21:22:41.318Z,50.05
2018-11-27T21:25:24.035Z,32.85
2018-11-27T21:27:55.087Z,38.88
2018-11-27T21:30:22.366Z,38.40
2018-11-27T21:32:49.623Z,42.62
2018-11-27T21:35:17.116Z,33.78
2018-11-27T21:37:44.402Z,35.88
2018-11-27T21:40:13.205Z,30.57
2018-11-27T21:42:40.488Z,36.50
2018-11-27T21:45:09.549Z,34.88
2018-11-27T21:47:37.298Z,34.45
2018-11-27T21:50:05.846Z,33.10
2018-11-27T21:52:32.691Z,37.75
2018-11-27T21:55:00.207Z,37.85
2018-11-27T21:57:27.757Z,41.68
2018-11-27T21:59:55.016Z,47.80
2018-11-27T22:02:22.326Z,45.55
2018-11-27T22:04:49.839Z,38.50
2018-11-27T22:07:17.199Z,42.08
2018-11-27T22:09:44.707Z,40.70
2018-11-27T22:12:12.010Z,40.20
2018-11-27T22:14:39.539Z,42.33
2018-11-27T22:17:07.062Z,39.05
2018-11-27T22:19:34.684Z,39.98
2018-11-27T22:22:02.245Z,36.85
2018-11-27T22:24:29.805Z,40.70
2018-11-27T22:26:57.081Z,42.70
2018-11-27T22:29:24.363Z,34.50
2018-11-27T22:31:51.621Z,40.25
2018-11-27T22:34:19.495Z,43.08
2018-11-27T22:36:47.280Z,43.95
2018-11-27T22:39:14.563Z,42.78
2018-11-27T22:41:43.433Z,40.17
2018-11-27T22:44:10.690Z,38.13
2018-11-27T22:46:38.094Z,41.70
2018-11-27T22:49:05.466Z,39.42
2018-11-27T22:51:33.022Z,36.48
2018-11-27T22:54:00.283Z,41.10
2018-11-27T22:56:27.742Z,43.38
2018-11-27T22:58:55.023Z,42.65
2018-11-27T23:01:22.330Z,44.48
2018-11-27T23:03:49.647Z,39.65
2018-11-27T23:06:16.978Z,38.50
2018-11-27T23:08:44.291Z,42.00
2018-11-27T23:11:11.629Z,49.05
2018-11-27T23:13:38.902Z,46.98
2018-11-27T23:16:06.504Z,38.55
2018-11-27T23:18:34.530Z,43.75
2018-11-27T23:21:02.034Z,44.13
2018-11-27T23:23:29.402Z,37.15
2018-11-27T23:25:56.940Z,43.13
2018-11-27T23:28:24.272Z,42.10
2018-11-27T23:30:51.806Z,41.70
2018-11-27T23:33:19.088Z,42.50
2018-11-27T23:35:46.360Z,45.55
2018-11-27T23:38:13.630Z,38.53
2018-11-27T23:40:40.950Z,40.45
2018-11-27T23:43:08.397Z,43.78
2018-11-27T23:45:35.808Z,37.70
2018-11-27T23:48:03.677Z,41.10
2018-11-27T23:50:31.030Z,40.40
2018-11-27T23:52:58.522Z,39.88
2018-11-27T23:55:26.388Z,42.85
2018-11-27T23:57:53.746Z,46.28
